createdAt,value
2023-01-19T00:01:11.696Z,10.76
2023-01-19T00:03:39.358Z,10.65
2023-01-19T00:06:07.740Z,11.18
2023-01-19T00:08:35.880Z,10.87
2023-01-19T00:11:03.825Z,11.30
2023-01-19T00:13:31.696Z,10.86
2023-01-19T00:15:59.392Z,10.40
2023-01-19T00:18:27.130Z,10.12
2023-01-19T00:20:54.815Z,10.78
2023-01-19T00:23:22.519Z,10.36
2023-01-19T00:25:51.271Z,10.40
2023-01-19T00:28:19.276Z,10.16
2023-01-19T00:30:47.114Z,10.18
2023-01-19T00:33:15.353Z,9.88
2023-01-19T00:35:43.179Z,10.13
2023-01-19T00:38:14.170Z,10.34
2023-01-19T00:40:41.912Z,10.05
2023-01-19T00:43:09.734Z,10.81
2023-01-19T00:45:37.442Z,10.34
2023-01-19T00:48:05.542Z,10.26
2023-01-19T00:50:33.420Z,10.31
2023-01-19T00:53:01.953Z,10.39
2023-01-19T00:55:30.761Z,10.52
2023-01-19T00:57:58.582Z,10.69
2023-01-19T01:00:26.541Z,10.83
2023-01-19T01:02:54.427Z,10.95
2023-01-19T01:05:22.140Z,10.99
2023-01-19T01:07:50.672Z,11.31
2023-01-19T01:10:19.654Z,11.20
2023-01-19T01:12:55.191Z,11.16
2023-01-19T01:15:26.689Z,10.85
2023-01-19T01:17:54.791Z,11.09
2023-01-19T01:20:25.373Z,11.04
2023-01-19T01:22:53.487Z,11.11
2023-01-19T01:25:22.710Z,11.11
2023-01-19T01:27:50.930Z,11.48
2023-01-19T01:30:18.801Z,11.85
2023-01-19T01:32:46.629Z,11.56
2023-01-19T01:35:14.609Z,11.75
2023-01-19T01:37:42.958Z,11.68
2023-01-19T01:40:14.746Z,11.83
2023-01-19T01:42:42.745Z,11.57
2023-01-19T01:45:16.542Z,11.71
2023-01-19T01:47:46.135Z,11.05
2023-01-19T01:50:22.679Z,12.21
2023-01-19T01:53:09.139Z,11.52
2023-01-19T01:55:46.411Z,11.82
2023-01-19T01:58:14.185Z,11.47
2023-01-19T02:01:00.436Z,12.38
2023-01-19T02:03:28.333Z,11.19
2023-01-19T02:05:59.262Z,11.25
2023-01-19T02:08:49.389Z,11.48
2023-01-19T02:11:35.659Z,11.17
2023-01-19T02:14:06.465Z,11.47
2023-01-19T02:16:35.001Z,11.08
2023-01-19T02:19:03.197Z,10.87
2023-01-19T02:21:34.871Z,11.35
2023-01-19T02:24:03.146Z,11.42
2023-01-19T02:26:33.881Z,11.17
2023-01-19T02:29:03.930Z,11.30
2023-01-19T02:31:32.084Z,11.42
2023-01-19T02:34:00.449Z,11.47
2023-01-19T02:36:38.225Z,11.46
2023-01-19T02:39:06.023Z,12.13
2023-01-19T02:41:37.423Z,11.47
2023-01-19T02:44:05.252Z,11.67
2023-01-19T02:46:32.923Z,11.51
2023-01-19T02:49:01.562Z,11.84
2023-01-19T02:51:29.359Z,12.07
2023-01-19T02:54:35.704Z,11.90
2023-01-19T02:57:17.122Z,11.66
2023-01-19T03:00:03.291Z,11.98
2023-01-19T03:03:00.632Z,11.97
2023-01-19T03:06:01.594Z,12.02
2023-01-19T03:08:52.629Z,11.86
2023-01-19T03:11:20.335Z,12.07
2023-01-19T03:13:47.907Z,11.94
2023-01-19T03:16:23.029Z,12.05
2023-01-19T03:18:56.190Z,11.92
2023-01-19T03:21:25.804Z,11.96
2023-01-19T03:23:53.639Z,11.85
2023-01-19T03:26:30.218Z,12.15
2023-01-19T03:28:58.474Z,11.93
2023-01-19T03:31:27.357Z,11.87
2023-01-19T03:34:02.512Z,11.82
2023-01-19T03:36:36.400Z,11.86
2023-01-19T03:39:04.921Z,11.99
2023-01-19T03:41:32.602Z,11.87
2023-01-19T03:44:00.395Z,11.94
2023-01-19T03:46:28.165Z,11.88
2023-01-19T03:48:56.203Z,11.89
2023-01-19T03:51:24.021Z,11.75
2023-01-19T03:53:51.790Z,12.06
2023-01-19T03:56:21.686Z,12.03
2023-01-19T03:58:49.449Z,11.90
2023-01-19T04:01:17.736Z,11.80
2023-01-19T04:03:47.197Z,11.88
2023-01-19T04:06:15.040Z,11.93
2023-01-19T04:08:42.762Z,11.87
2023-01-19T04:11:10.573Z,12.02
2023-01-19T04:13:38.295Z,12.05
2023-01-19T04:16:06.629Z,12.13
2023-01-19T04:18:34.912Z,12.11
2023-01-19T04:21:07.426Z,11.98
2023-01-19T04:23:35.403Z,12.10
2023-01-19T04:26:05.003Z,12.43
2023-01-19T04:28:33.049Z,12.56
2023-01-19T04:31:01.087Z,12.08
2023-01-19T04:33:29.005Z,11.98
2023-01-19T04:35:56.920Z,12.24
2023-01-19T04:38:25.000Z,12.48
2023-01-19T04:40:53.221Z,12.34
2023-01-19T04:43:21.242Z,12.36
2023-01-19T04:45:49.252Z,12.62
2023-01-19T04:48:18.429Z,12.36
2023-01-19T04:50:46.436Z,12.48
2023-01-19T04:53:14.561Z,12.26
2023-01-19T04:55:42.222Z,12.22
2023-01-19T04:58:10.001Z,12.39
2023-01-19T05:00:37.678Z,12.61
2023-01-19T05:03:05.867Z,12.27
2023-01-19T05:05:34.209Z,12.42
2023-01-19T05:08:02.004Z,12.57
2023-01-19T05:10:29.678Z,12.71
2023-01-19T05:12:57.472Z,12.68
2023-01-19T05:15:25.184Z,12.88
2023-01-19T05:17:53.019Z,12.38
2023-01-19T05:20:20.745Z,12.67
2023-01-19T05:22:49.748Z,13.06
2023-01-19T05:25:17.611Z,12.95
2023-01-19T05:27:45.424Z,13.28
2023-01-19T05:30:13.405Z,12.67
2023-01-19T05:32:41.154Z,12.31
2023-01-19T05:35:09.367Z,12.49
2023-01-19T05:37:37.095Z,12.74
2023-01-19T05:40:05.486Z,12.69
2023-01-19T05:42:33.245Z,12.58
2023-01-19T05:45:00.973Z,13.21
2023-01-19T05:47:31.807Z,13.12
2023-01-19T05:49:59.564Z,13.93
2023-01-19T05:52:27.300Z,13.98
2023-01-19T05:54:55.259Z,13.06
2023-01-19T05:57:23.131Z,12.37
2023-01-19T05:59:50.852Z,13.01
2023-01-19T06:02:18.630Z,13.08
2023-01-19T06:04:46.351Z,13.06
2023-01-19T06:07:14.094Z,12.88
2023-01-19T06:09:41.750Z,13.11
2023-01-19T06:12:09.576Z,12.87
2023-01-19T06:14:38.080Z,12.74
2023-01-19T06:17:06.692Z,12.93
2023-01-19T06:19:35.042Z,12.72
2023-01-19T06:22:02.871Z,12.42
2023-01-19T06:24:30.736Z,12.04
2023-01-19T06:27:00.283Z,11.86
2023-01-19T06:29:28.746Z,12.92
2023-01-19T06:31:57.271Z,12.07
2023-01-19T06:34:29.003Z,12.20
2023-01-19T06:36:56.874Z,12.33
2023-01-19T06:39:24.578Z,11.83
2023-01-19T06:41:52.313Z,11.66
2023-01-19T06:44:20.024Z,13.27
2023-01-19T06:46:49.093Z,12.51
2023-01-19T06:49:16.793Z,12.87
2023-01-19T06:51:44.491Z,13.42
2023-01-19T06:54:12.255Z,13.05
2023-01-19T06:56:39.996Z,13.30
2023-01-19T06:59:08.550Z,13.40
2023-01-19T07:01:36.307Z,13.25
2023-01-19T07:04:04.126Z,13.47
2023-01-19T07:06:31.902Z,14.35
2023-01-19T07:09:00.302Z,14.36
2023-01-19T07:11:33.105Z,14.76
2023-01-19T07:14:00.922Z,14.84
2023-01-19T07:16:28.599Z,15.54
2023-01-19T07:18:56.460Z,15.50
2023-01-19T07:21:24.170Z,14.69
2023-01-19T07:23:52.330Z,14.56
2023-01-19T07:26:21.493Z,15.59
2023-01-19T07:28:49.668Z,14.82
2023-01-19T07:31:18.004Z,14.64
2023-01-19T07:33:47.019Z,14.42
2023-01-19T07:36:14.792Z,14.30
2023-01-19T07:38:42.531Z,15.70
2023-01-19T07:41:10.492Z,15.10
2023-01-19T07:43:38.305Z,14.96
2023-01-19T07:46:06.514Z,15.47
2023-01-19T07:48:34.461Z,15.68
2023-01-19T07:51:05.858Z,15.45
2023-01-19T07:53:33.848Z,15.72
2023-01-19T07:56:01.669Z,15.99
2023-01-19T07:58:29.478Z,16.44
2023-01-19T08:00:57.282Z,16.39
2023-01-19T08:03:25.100Z,16.09
2023-01-19T08:05:53.059Z,16.71
2023-01-19T08:08:20.902Z,16.19
2023-01-19T08:10:52.126Z,17.25
2023-01-19T08:13:19.961Z,18.38
2023-01-19T08:15:53.812Z,18.08
2023-01-19T08:18:21.770Z,17.92
2023-01-19T08:20:49.539Z,17.11
2023-01-19T08:23:18.262Z,17.53
2023-01-19T08:25:46.203Z,17.52
2023-01-19T08:28:15.237Z,17.67
2023-01-19T08:30:46.136Z,16.30
2023-01-19T08:33:14.014Z,15.74
2023-01-19T08:35:42.851Z,16.47
2023-01-19T08:38:10.814Z,16.72
2023-01-19T08:40:40.024Z,16.44
2023-01-19T08:43:09.661Z,16.50
2023-01-19T08:45:38.118Z,17.20
2023-01-19T08:48:06.408Z,18.41
2023-01-19T08:50:34.286Z,18.03
2023-01-19T08:53:03.170Z,17.99
2023-01-19T08:55:31.223Z,18.99
2023-01-19T08:58:00.168Z,18.21
2023-01-19T09:00:28.131Z,20.17
2023-01-19T09:02:56.641Z,21.64
2023-01-19T09:05:24.511Z,19.79
2023-01-19T09:07:52.344Z,22.78
2023-01-19T09:10:20.137Z,21.41
2023-01-19T09:12:47.910Z,21.37
2023-01-19T09:15:15.677Z,19.71
2023-01-19T09:17:43.460Z,21.02
2023-01-19T09:20:11.353Z,18.99
2023-01-19T09:22:39.763Z,20.26
2023-01-19T09:25:07.936Z,21.88
2023-01-19T09:27:35.765Z,23.82
2023-01-19T09:30:04.462Z,23.37
2023-01-19T09:32:32.259Z,22.07
2023-01-19T09:34:59.972Z,20.01
2023-01-19T09:37:27.774Z,18.49
2023-01-19T09:39:55.610Z,19.38
2023-01-19T09:42:39.900Z,17.96
2023-01-19T09:45:09.934Z,18.21
2023-01-19T09:47:38.633Z,19.11
2023-01-19T09:50:12.747Z,19.38
2023-01-19T09:52:41.668Z,18.43
2023-01-19T09:55:29.597Z,17.67
2023-01-19T09:57:57.398Z,17.81
2023-01-19T10:00:25.112Z,17.76
2023-01-19T10:03:13.269Z,18.19
2023-01-19T10:05:55.525Z,17.35
2023-01-19T10:08:37.764Z,18.04
2023-01-19T10:11:06.500Z,17.17
2023-01-19T10:13:48.676Z,17.55
2023-01-19T10:16:37.690Z,17.85
2023-01-19T10:19:23.880Z,18.05
2023-01-19T10:21:51.657Z,17.80
2023-01-19T10:24:37.347Z,17.33
2023-01-19T10:27:10.359Z,17.61
2023-01-19T10:29:38.272Z,17.46
2023-01-19T10:32:11.065Z,17.99
2023-01-19T10:34:38.780Z,18.09
2023-01-19T10:37:31.367Z,17.86
2023-01-19T10:40:11.253Z,17.97
2023-01-19T10:42:40.421Z,17.77
2023-01-19T10:45:17.962Z,17.24
2023-01-19T10:47:46.492Z,17.26
2023-01-19T10:50:26.509Z,16.80
2023-01-19T10:52:55.627Z,17.21
2023-01-19T10:55:30.120Z,17.04
2023-01-19T10:57:58.568Z,17.24
2023-01-19T11:00:39.894Z,16.93
2023-01-19T11:03:30.174Z,17.25
2023-01-19T11:06:26.321Z,16.79
2023-01-19T11:09:08.874Z,17.25
2023-01-19T11:11:44.764Z,16.87
2023-01-19T11:14:19.213Z,16.53
2023-01-19T11:16:56.677Z,16.44
2023-01-19T11:19:29.184Z,16.19
2023-01-19T11:22:10.300Z,16.11
2023-01-19T11:24:38.627Z,16.28
2023-01-19T11:27:06.392Z,16.03
2023-01-19T11:29:34.154Z,16.30
2023-01-19T11:32:12.775Z,16.14
2023-01-19T11:34:40.579Z,16.28
2023-01-19T11:37:20.359Z,16.26
2023-01-19T11:39:56.520Z,16.31
2023-01-19T11:42:24.527Z,16.78
2023-01-19T11:44:59.467Z,17.15
2023-01-19T11:47:36.330Z,16.92
2023-01-19T11:50:28.697Z,16.79
2023-01-19T11:53:00.750Z,16.65
2023-01-19T11:55:40.209Z,16.99
2023-01-19T11:58:13.075Z,17.54
2023-01-19T12:00:44.949Z,17.49
2023-01-19T12:03:31.764Z,17.87
2023-01-19T12:06:02.280Z,17.48
2023-01-19T12:08:33.562Z,16.24
2023-01-19T12:11:01.439Z,15.87
2023-01-19T12:13:30.417Z,16.15
2023-01-19T12:16:05.722Z,16.08
2023-01-19T12:18:45.646Z,16.64
2023-01-19T12:21:13.464Z,16.81
2023-01-19T12:24:01.514Z,16.93
2023-01-19T12:26:31.177Z,17.52
2023-01-19T12:29:04.113Z,17.05
2023-01-19T12:31:32.129Z,16.19
2023-01-19T12:34:31.489Z,16.55
2023-01-19T12:37:02.896Z,16.34
2023-01-19T12:39:30.855Z,16.00
2023-01-19T12:42:15.376Z,15.80
2023-01-19T12:44:44.005Z,16.26
2023-01-19T12:47:13.072Z,16.84
2023-01-19T12:49:47.155Z,15.50
2023-01-19T12:52:33.359Z,15.72
2023-01-19T12:55:15.750Z,16.12
2023-01-19T12:57:56.325Z,16.42
2023-01-19T13:00:23.954Z,15.94
2023-01-19T13:02:55.315Z,15.88
2023-01-19T13:05:26.046Z,16.16
2023-01-19T13:08:02.867Z,15.60
2023-01-19T13:10:53.276Z,15.62
2023-01-19T13:13:50.564Z,15.20
2023-01-19T13:16:18.307Z,15.28
2023-01-19T13:18:56.715Z,15.89
2023-01-19T13:21:44.634Z,16.33
2023-01-19T13:24:15.012Z,16.27
2023-01-19T13:26:49.465Z,16.02
2023-01-19T13:29:37.993Z,16.04
2023-01-19T13:32:12.794Z,15.42
2023-01-19T13:34:42.738Z,15.12
2023-01-19T13:37:21.921Z,15.03
2023-01-19T13:39:51.205Z,14.87
2023-01-19T13:42:24.768Z,14.90
2023-01-19T13:44:53.640Z,15.20
2023-01-19T13:47:23.069Z,15.76
2023-01-19T13:49:51.862Z,15.32
2023-01-19T13:52:25.897Z,15.18
2023-01-19T13:54:54.957Z,15.03
2023-01-19T13:57:41.984Z,14.76
2023-01-19T14:00:12.019Z,14.98
2023-01-19T14:02:56.288Z,15.21
2023-01-19T14:05:37.784Z,15.36
2023-01-19T14:08:08.468Z,15.31
2023-01-19T14:10:37.145Z,15.57
2023-01-19T14:13:21.698Z,15.33
2023-01-19T14:15:50.414Z,15.49
2023-01-19T14:18:18.107Z,15.40
2023-01-19T14:21:08.314Z,15.06
2023-01-19T14:24:05.739Z,14.69
2023-01-19T14:26:46.381Z,14.54
2023-01-19T14:29:33.250Z,14.69
2023-01-19T14:32:00.983Z,14.64
2023-01-19T14:34:44.954Z,14.82
2023-01-19T14:37:20.266Z,14.50
2023-01-19T14:39:59.262Z,15.18
2023-01-19T14:42:29.135Z,14.64
2023-01-19T14:44:57.565Z,14.45
2023-01-19T14:47:29.615Z,14.17
2023-01-19T14:50:01.006Z,14.62
2023-01-19T14:52:33.398Z,14.97
2023-01-19T14:55:02.733Z,14.75
2023-01-19T14:57:30.398Z,14.26
2023-01-19T14:59:58.102Z,14.36
2023-01-19T15:02:25.952Z,14.03
2023-01-19T15:04:55.463Z,14.43
2023-01-19T15:07:23.785Z,14.43
2023-01-19T15:09:51.556Z,14.26
2023-01-19T15:12:20.722Z,13.85
2023-01-19T15:14:48.399Z,14.64
2023-01-19T15:17:17.648Z,14.41
2023-01-19T15:19:45.365Z,14.23
2023-01-19T15:22:13.542Z,14.38
2023-01-19T15:24:41.339Z,14.77
2023-01-19T15:27:12.289Z,14.23
2023-01-19T15:29:40.460Z,14.25
2023-01-19T15:32:14.485Z,14.46
2023-01-19T15:34:42.329Z,13.55
2023-01-19T15:37:10.078Z,13.97
2023-01-19T15:39:37.835Z,13.81
2023-01-19T15:42:10.262Z,13.58
2023-01-19T15:44:38.065Z,13.43
2023-01-19T15:47:05.754Z,13.38
2023-01-19T15:49:33.459Z,13.03
2023-01-19T15:52:01.197Z,12.89
2023-01-19T15:54:28.909Z,13.28
2023-01-19T15:56:56.666Z,13.29
2023-01-19T15:59:24.462Z,13.27
2023-01-19T16:01:52.429Z,13.22
2023-01-19T16:04:20.318Z,13.17
2023-01-19T16:06:50.015Z,13.29
2023-01-19T16:09:20.103Z,13.49
2023-01-19T16:11:47.862Z,13.67
2023-01-19T16:14:17.405Z,13.08
2023-01-19T16:16:46.240Z,13.27
2023-01-19T16:19:15.810Z,13.40
2023-01-19T16:21:44.017Z,13.82
2023-01-19T16:24:11.767Z,13.32
2023-01-19T16:26:39.604Z,13.33
2023-01-19T16:29:08.876Z,13.42
2023-01-19T16:31:37.964Z,13.61
2023-01-19T16:34:05.832Z,13.08
2023-01-19T16:36:34.670Z,13.13
2023-01-19T16:39:05.142Z,13.37
2023-01-19T16:41:33.612Z,12.99
2023-01-19T16:44:01.560Z,13.06
2023-01-19T16:46:32.510Z,13.60
2023-01-19T16:49:04.153Z,13.00
2023-01-19T16:51:32.086Z,13.38
2023-01-19T16:53:59.784Z,13.44
2023-01-19T16:56:27.502Z,13.47
2023-01-19T16:58:55.908Z,14.32
2023-01-19T17:01:24.781Z,13.90
2023-01-19T17:03:52.573Z,13.75
2023-01-19T17:06:22.662Z,13.69
2023-01-19T17:08:50.904Z,13.49
2023-01-19T17:11:26.367Z,13.41
2023-01-19T17:13:55.950Z,13.10
2023-01-19T17:16:24.572Z,12.98
2023-01-19T17:18:52.376Z,13.09
2023-01-19T17:21:20.281Z,12.22
2023-01-19T17:23:49.245Z,12.10
2023-01-19T17:26:17.487Z,12.57
2023-01-19T17:28:45.366Z,12.19
2023-01-19T17:31:17.981Z,12.08
2023-01-19T17:33:49.501Z,11.51
2023-01-19T17:36:22.542Z,11.50
2023-01-19T17:38:50.398Z,11.74
2023-01-19T17:41:19.855Z,12.06
2023-01-19T17:43:47.664Z,12.07
2023-01-19T17:46:15.362Z,12.05
2023-01-19T17:48:43.382Z,11.52
2023-01-19T17:51:12.554Z,11.66
2023-01-19T17:53:40.798Z,11.09
2023-01-19T17:56:13.161Z,11.43
2023-01-19T17:58:41.069Z,12.49
2023-01-19T18:01:30.968Z,12.77
2023-01-19T18:03:58.893Z,12.91
2023-01-19T18:06:26.620Z,12.69
2023-01-19T18:08:54.372Z,13.17
2023-01-19T18:11:22.200Z,11.72
2023-01-19T18:13:50.146Z,12.09
2023-01-19T18:16:22.304Z,12.87
2023-01-19T18:18:50.602Z,13.37
2023-01-19T18:21:18.386Z,13.23
2023-01-19T18:23:46.237Z,13.23
2023-01-19T18:26:18.871Z,12.82
2023-01-19T18:28:47.223Z,13.11
2023-01-19T18:31:16.491Z,13.26
2023-01-19T18:33:44.569Z,13.29
2023-01-19T18:36:12.368Z,12.52
2023-01-19T18:38:40.247Z,12.65
2023-01-19T18:41:15.791Z,11.95
2023-01-19T18:43:43.601Z,12.48
2023-01-19T18:46:11.455Z,12.23
2023-01-19T18:48:39.374Z,12.08
2023-01-19T18:51:08.110Z,11.65
2023-01-19T18:53:35.859Z,12.53
2023-01-19T18:56:03.803Z,12.63
2023-01-19T18:58:32.538Z,13.09
2023-01-19T19:01:00.601Z,12.50
2023-01-19T19:03:28.503Z,13.03
2023-01-19T19:05:56.241Z,12.53
2023-01-19T19:08:24.097Z,12.09
2023-01-19T19:10:51.817Z,12.33
2023-01-19T19:13:21.873Z,12.33
2023-01-19T19:15:50.463Z,12.51
2023-01-19T19:18:18.610Z,12.79
2023-01-19T19:20:46.252Z,12.22
2023-01-19T19:23:14.247Z,12.00
2023-01-19T19:25:42.014Z,11.81
2023-01-19T19:28:09.845Z,12.12
2023-01-19T19:30:39.006Z,12.26
2023-01-19T19:33:07.815Z,12.46
2023-01-19T19:35:35.605Z,12.19
2023-01-19T19:38:03.489Z,12.40
2023-01-19T19:40:31.287Z,12.44
2023-01-19T19:42:59.051Z,12.47
2023-01-19T19:45:26.976Z,12.68
2023-01-19T19:47:54.783Z,12.72
2023-01-19T19:50:22.558Z,12.64
2023-01-19T19:52:50.295Z,12.74
2023-01-19T19:55:18.105Z,12.58
2023-01-19T19:57:45.841Z,12.46
2023-01-19T20:00:14.017Z,12.57
2023-01-19T20:02:41.903Z,12.74
2023-01-19T20:05:09.691Z,12.19
2023-01-19T20:07:39.111Z,12.22
2023-01-19T20:10:07.221Z,12.31
2023-01-19T20:12:34.888Z,12.40
2023-01-19T20:15:02.593Z,11.62
2023-01-19T20:17:30.328Z,11.73
2023-01-19T20:19:59.167Z,11.43
2023-01-19T20:22:26.874Z,10.49
2023-01-19T20:24:54.798Z,10.96
2023-01-19T20:27:22.789Z,10.20
2023-01-19T20:29:51.926Z,10.25
2023-01-19T20:32:19.676Z,10.55
2023-01-19T20:34:47.376Z,10.31
2023-01-19T20:37:15.102Z,9.89
2023-01-19T20:39:43.172Z,9.79
2023-01-19T20:42:11.602Z,9.90
2023-01-19T20:44:39.785Z,10.55
2023-01-19T20:47:09.305Z,10.99
2023-01-19T20:49:37.221Z,10.79
2023-01-19T20:52:05.013Z,10.47
2023-01-19T20:54:32.865Z,10.59
2023-01-19T20:57:00.585Z,11.00
2023-01-19T20:59:28.387Z,10.84
2023-01-19T21:01:56.195Z,11.03
2023-01-19T21:04:24.104Z,11.24
2023-01-19T21:06:51.815Z,10.60
2023-01-19T21:09:19.547Z,10.97
2023-01-19T21:11:47.266Z,10.89
2023-01-19T21:14:14.982Z,11.32
2023-01-19T21:16:42.942Z,11.48
2023-01-19T21:19:10.769Z,11.37
2023-01-19T21:21:38.468Z,10.93
2023-01-19T21:24:06.377Z,11.04
2023-01-19T21:26:34.260Z,10.56
2023-01-19T21:29:02.233Z,10.73
2023-01-19T21:31:30.119Z,11.07
2023-01-19T21:33:58.119Z,10.80
2023-01-19T21:36:25.993Z,11.11
2023-01-19T21:38:55.720Z,11.03
2023-01-19T21:41:23.686Z,11.20
2023-01-19T21:43:51.468Z,11.38
2023-01-19T21:46:21.022Z,10.64
2023-01-19T21:48:48.783Z,10.84
2023-01-19T21:51:16.562Z,10.98
2023-01-19T21:53:44.301Z,10.89
2023-01-19T21:56:12.104Z,11.00
2023-01-19T21:58:39.779Z,10.87
2023-01-19T22:01:13.640Z,10.18
2023-01-19T22:03:41.853Z,9.92
2023-01-19T22:06:11.417Z,10.46
2023-01-19T22:08:39.334Z,10.81
2023-01-19T22:11:08.250Z,10.73
2023-01-19T22:13:36.318Z,10.87
2023-01-19T22:16:05.413Z,11.12
2023-01-19T22:18:35.248Z,10.83
2023-01-19T22:21:11.298Z,10.85
2023-01-19T22:23:39.225Z,10.64
2023-01-19T22:26:07.070Z,10.71
2023-01-19T22:28:34.950Z,10.69
2023-01-19T22:31:09.388Z,10.14
2023-01-19T22:33:37.183Z,9.66
2023-01-19T22:36:14.031Z,9.80
2023-01-19T22:38:41.919Z,9.63
2023-01-19T22:41:17.580Z,8.58
2023-01-19T22:43:45.583Z,8.42
2023-01-19T22:46:13.631Z,8.34
2023-01-19T22:48:41.356Z,7.49
2023-01-19T22:51:09.154Z,8.03
2023-01-19T22:53:36.863Z,8.54
2023-01-19T22:56:15.405Z,9.08
2023-01-19T22:58:46.429Z,9.35
2023-01-19T23:01:21.804Z,9.70
2023-01-19T23:03:49.716Z,9.28
2023-01-19T23:06:20.120Z,9.54
2023-01-19T23:08:47.891Z,9.72
2023-01-19T23:11:36.179Z,9.96
2023-01-19T23:14:04.836Z,9.63
2023-01-19T23:16:32.559Z,8.99
2023-01-19T23:19:00.361Z,9.63
2023-01-19T23:21:29.410Z,9.40
2023-01-19T23:23:58.530Z,8.34
2023-01-19T23:26:26.363Z,8.94
2023-01-19T23:28:55.602Z,8.76
2023-01-19T23:31:25.464Z,9.38
2023-01-19T23:33:54.950Z,8.78
2023-01-19T23:36:23.253Z,9.33
2023-01-19T23:38:52.437Z,9.76
2023-01-19T23:41:20.214Z,9.27
2023-01-19T23:43:47.952Z,9.37
2023-01-19T23:46:15.842Z,9.90
2023-01-19T23:48:43.595Z,9.73
2023-01-19T23:51:25.128Z,9.15
2023-01-19T23:53:53.019Z,9.29
2023-01-19T23:56:25.754Z,9.73
2023-01-19T23:58:58.297Z,9.66
